Time;durP1;ratioP1;P1;durP2;ratioP2;P2;SDS_P1;SDS_P2;PMS_P1;PMS_P2;Temp;Humidity;BMP_temperature;BMP_pressure;BME280_temperature;BME280_humidity;BME280_pressure;Samples;Min_cycle;Max_cycle;Signal;HPM_P1;HPM_P2
2022/09/21 00:01:15;;;;;;;0.30;0.30;;;8.70;99.90;;;;;;5087567;28;20120;-58
2022/09/21 00:03:42;;;;;;;0.30;0.20;;;8.70;99.90;;;;;;5071345;28;20090;-59
2022/09/21 00:06:11;;;;;;;0.98;0.20;;;8.60;99.90;;;;;;5071888;28;20078;-58
2022/09/21 00:08:37;;;;;;;0.25;0.20;;;8.50;99.90;;;;;;5071800;28;20105;-57
2022/09/21 00:11:04;;;;;;;0.50;0.35;;;8.50;99.90;;;;;;5071010;28;20040;-59
2022/09/21 00:13:32;;;;;;;2.55;0.28;;;8.50;99.90;;;;;;5071151;28;20512;-58
2022/09/21 00:15:58;;;;;;;0.20;0.20;;;8.50;99.90;;;;;;5087117;28;20041;-59
2022/09/21 00:18:24;;;;;;;0.20;0.10;;;8.50;99.90;;;;;;5092079;28;20040;-57
2022/09/21 00:20:51;;;;;;;0.43;0.20;;;8.40;99.90;;;;;;5091867;28;20043;-58
2022/09/21 00:23:17;;;;;;;1.13;0.40;;;8.40;99.90;;;;;;5091044;28;20213;-60
2022/09/21 00:25:43;;;;;;;1.55;0.40;;;8.40;99.90;;;;;;5079697;28;20107;-57
2022/09/21 00:28:09;;;;;;;0.97;0.30;;;8.40;99.90;;;;;;5071416;28;20123;-60
2022/09/21 00:30:35;;;;;;;1.25;0.63;;;8.40;99.90;;;;;;5086838;28;20039;-59
2022/09/21 00:33:01;;;;;;;2.20;0.40;;;8.30;99.90;;;;;;5091028;28;20527;-60
2022/09/21 00:35:26;;;;;;;0.53;0.30;;;8.30;99.90;;;;;;5085379;28;20116;-58
2022/09/21 00:37:52;;;;;;;2.13;0.60;;;8.30;99.90;;;;;;5071063;28;20047;-60
2022/09/21 00:40:18;;;;;;;1.27;0.30;;;8.30;99.90;;;;;;5071020;28;20167;-57
2022/09/21 00:42:43;;;;;;;0.98;0.35;;;8.30;99.90;;;;;;5071053;28;20029;-59
2022/09/21 00:45:19;;;;;;;5.37;0.47;;;8.30;99.90;;;;;;5070878;28;20033;-60
2022/09/21 00:47:49;;;;;;;0.30;0.20;;;8.20;99.90;;;;;;5091452;28;20075;-57
2022/09/21 00:50:19;;;;;;;0.70;0.20;;;8.10;99.90;;;;;;5090862;28;20043;-59
2022/09/21 00:52:51;;;;;;;1.45;0.60;;;8.00;99.90;;;;;;5089922;28;20519;-59
2022/09/21 00:55:36;;;;;;;2.40;0.60;;;7.90;99.90;;;;;;5090033;28;20039;-60
2022/09/21 00:58:08;;;;;;;1.23;0.40;;;7.70;99.90;;;;;;5074309;28;20047;-60
2022/09/21 01:00:39;;;;;;;1.00;0.52;;;7.60;99.90;;;;;;5070776;28;20028;-59
2022/09/21 01:03:05;;;;;;;1.80;0.50;;;7.60;99.90;;;;;;5068905;28;20044;-58
2022/09/21 01:05:31;;;;;;;;;;;7.60;99.90;;;;;;5071607;28;20171;-58
2022/09/21 01:08:00;;;;;;;3.88;0.40;;;7.50;99.90;;;;;;5086416;28;19963;-60
2022/09/21 01:10:31;;;;;;;0.60;0.40;;;7.40;99.90;;;;;;5090306;28;20044;-60
2022/09/21 01:13:05;;;;;;;0.20;0.20;;;7.40;99.90;;;;;;5091009;28;20040;-60
2022/09/21 01:16:02;;;;;;;1.75;0.30;;;7.40;99.90;;;;;;5091082;28;20072;-59
2022/09/21 01:18:36;;;;;;;1.95;0.20;;;7.40;99.90;;;;;;5073996;28;20045;-58
2022/09/21 01:21:21;;;;;;;0.75;0.60;;;7.50;99.90;;;;;;5071223;28;20497;-58
2022/09/21 01:24:05;;;;;;;3.25;0.30;;;7.50;99.90;;;;;;5071577;28;20109;-59
2022/09/21 01:26:43;;;;;;;5.18;0.52;;;7.50;99.90;;;;;;5090907;28;20068;-60
2022/09/21 01:29:20;;;;;;;0.50;0.40;;;7.50;99.90;;;;;;5089034;28;20036;-59
2022/09/21 01:31:56;;;;;;;0.80;0.38;;;7.50;99.90;;;;;;5090692;28;20544;-59
2022/09/21 01:34:32;;;;;;;2.47;0.32;;;7.40;99.90;;;;;;5090446;28;20447;-57
2022/09/21 01:37:03;;;;;;;1.95;0.40;;;7.30;99.90;;;;;;5090859;28;20051;-60
2022/09/21 01:39:31;;;;;;;0.77;0.47;;;7.40;99.90;;;;;;5073478;28;20083;-57
2022/09/21 01:41:58;;;;;;;1.35;0.30;;;7.40;99.90;;;;;;5071783;28;20041;-59
2022/09/21 01:44:29;;;;;;;0.82;0.22;;;7.40;99.90;;;;;;5070488;28;20068;-60
2022/09/21 01:46:56;;;;;;;0.35;0.22;;;7.40;99.90;;;;;;5070552;28;20123;-59
2022/09/21 01:49:30;;;;;;;0.70;0.10;;;7.30;99.90;;;;;;5070239;28;20037;-59
2022/09/21 01:52:04;;;;;;;0.32;0.10;;;7.20;99.90;;;;;;5074457;28;20039;-59
2022/09/21 01:54:47;;;;;;;1.05;0.10;;;7.20;99.90;;;;;;5089610;28;20044;-60
2022/09/21 01:57:20;;;;;;;0.52;0.20;;;7.10;99.90;;;;;;5090757;28;20032;-59
2022/09/21 01:59:56;;;;;;;15.15;0.65;;;7.10;99.90;;;;;;5079336;28;20041;-57
2022/09/21 02:02:40;;;;;;;0.98;0.30;;;7.10;99.90;;;;;;5070494;28;20116;-58
2022/09/21 02:05:06;;;;;;;2.65;0.20;;;7.10;99.90;;;;;;5069866;28;20124;-57
2022/09/21 02:07:32;;;;;;;;;;;7.10;99.90;;;;;;5070382;28;20051;-59
2022/09/21 02:10:00;;;;;;;7.80;0.52;;;7.10;99.90;;;;;;5079423;28;19916;-56
2022/09/21 02:12:25;;;;;;;5.45;0.40;;;7.10;99.90;;;;;;5090432;28;20172;-60
2022/09/21 02:14:54;;;;;;;1.93;0.50;;;7.00;99.90;;;;;;5076863;28;20041;-56
2022/09/21 02:17:46;;;;;;;0.90;0.25;;;7.00;99.90;;;;;;5069629;28;20075;-59
2022/09/21 02:20:30;;;;;;;0.38;0.30;;;7.00;99.90;;;;;;5078556;28;20067;-58
2022/09/21 02:23:10;;;;;;;0.45;0.30;;;7.00;99.90;;;;;;5093912;28;20105;-60
2022/09/21 02:25:56;;;;;;;3.30;0.40;;;7.10;99.90;;;;;;5094489;28;20454;-58
2022/09/21 02:28:52;;;;;;;0.40;0.30;;;7.10;99.90;;;;;;5085972;28;20044;-57
2022/09/21 02:31:35;;;;;;;1.75;0.80;;;7.10;99.90;;;;;;5073661;28;20524;-57
2022/09/21 02:34:16;;;;;;;1.23;0.77;;;7.10;99.90;;;;;;5073331;28;20488;-58
2022/09/21 02:37:07;;;;;;;1.60;0.40;;;7.10;99.90;;;;;;5073340;28;20044;-55
2022/09/21 02:39:51;;;;;;;0.75;0.40;;;7.10;99.90;;;;;;5073798;28;20033;-58
2022/09/21 02:42:23;;;;;;;1.15;0.40;;;7.00;99.90;;;;;;5090947;28;20044;-59
2022/09/21 02:45:15;;;;;;;1.20;0.55;;;6.90;99.90;;;;;;5093694;28;20040;-59
2022/09/21 02:47:58;;;;;;;1.00;0.20;;;6.80;99.90;;;;;;5088987;28;20116;-59
2022/09/21 02:50:32;;;;;;;7.47;0.32;;;6.80;99.90;;;;;;5073588;28;20052;-59
2022/09/21 02:53:00;;;;;;;0.55;0.20;;;6.70;99.90;;;;;;5091609;28;20040;-60
2022/09/21 02:55:26;;;;;;;0.63;0.30;;;6.70;99.90;;;;;;5092948;28;20292;-60
2022/09/21 02:57:54;;;;;;;3.92;0.70;;;6.70;99.90;;;;;;5093265;28;20039;-60
2022/09/21 03:00:20;;;;;;;1.38;0.28;;;6.70;99.90;;;;;;5093311;28;20036;-59
2022/09/21 03:02:46;;;;;;;1.55;0.20;;;6.70;99.90;;;;;;5089975;28;20469;-58
2022/09/21 03:05:12;;;;;;;0.37;0.27;;;6.70;99.90;;;;;;5093188;28;20041;-59
2022/09/21 03:07:38;;;;;;;1.33;0.40;;;6.80;99.90;;;;;;5092908;28;20044;-57
2022/09/21 03:10:05;;;;;;;0.63;0.30;;;6.80;99.90;;;;;;5092689;28;20524;-57
2022/09/21 03:12:31;;;;;;;;;;;6.80;99.90;;;;;;5087326;28;20699;-58
2022/09/21 03:14:58;;;;;;;0.40;0.38;;;6.80;99.90;;;;;;5072537;28;19920;-59
2022/09/21 03:17:24;;;;;;;0.40;0.30;;;6.80;99.90;;;;;;5078030;28;20093;-57
2022/09/21 03:19:49;;;;;;;4.33;0.27;;;6.80;99.90;;;;;;5072451;28;20036;-57
2022/09/21 03:22:16;;;;;;;0.30;0.20;;;6.80;99.90;;;;;;5073347;28;20040;-57
2022/09/21 03:24:45;;;;;;;0.45;0.30;;;6.70;99.90;;;;;;5092002;28;20167;-59
2022/09/21 03:27:15;;;;;;;0.30;0.20;;;6.60;99.90;;;;;;5092938;28;20040;-59
2022/09/21 03:29:41;;;;;;;0.10;0.10;;;6.60;99.90;;;;;;5092835;28;20401;-57
2022/09/21 03:32:07;;;;;;;0.20;0.20;;;6.50;99.90;;;;;;5072204;28;20043;-58
2022/09/21 03:34:33;;;;;;;28.35;0.70;;;6.50;99.90;;;;;;5071706;28;20028;-59
2022/09/21 03:37:03;;;;;;;1.10;0.30;;;6.40;99.90;;;;;;5071841;28;20391;-59
2022/09/21 03:39:28;;;;;;;4.68;0.52;;;6.40;99.90;;;;;;5072689;28;20393;-56
2022/09/21 03:41:55;;;;;;;0.73;0.30;;;6.40;99.90;;;;;;5073457;28;20044;-59
2022/09/21 03:44:22;;;;;;;69.13;2.75;;;6.40;99.90;;;;;;5071883;28;20041;-59
2022/09/21 03:46:49;;;;;;;38.28;1.70;;;6.40;99.90;;;;;;5072267;28;20082;-57
2022/09/21 03:49:15;;;;;;;1.15;0.57;;;6.30;99.90;;;;;;5072087;28;20118;-58
2022/09/21 03:51:41;;;;;;;0.70;0.30;;;6.30;99.90;;;;;;5071673;28;20123;-58
2022/09/21 03:54:06;;;;;;;0.77;0.20;;;6.20;99.90;;;;;;5086640;28;20123;-56
2022/09/21 03:56:32;;;;;;;26.40;0.70;;;6.30;99.90;;;;;;5092434;28;20090;-57
2022/09/21 03:58:57;;;;;;;3.87;0.63;;;6.30;99.90;;;;;;5092112;28;20120;-59
2022/09/21 04:01:23;;;;;;;1.70;0.30;;;6.20;99.90;;;;;;5092416;28;20109;-58
2022/09/21 04:03:49;;;;;;;2.50;0.45;;;6.30;99.90;;;;;;5089975;28;20441;-57
2022/09/21 04:06:14;;;;;;;1.43;0.30;;;6.30;99.90;;;;;;5092071;28;20043;-57
2022/09/21 04:08:40;;;;;;;1.10;0.40;;;6.30;99.90;;;;;;5080905;28;20045;-59
2022/09/21 04:11:14;;;;;;;1.23;0.37;;;6.30;99.90;;;;;;5071918;28;20120;-58
2022/09/21 04:13:44;;;;;;;5.93;0.40;;;6.30;99.90;;;;;;5069965;28;20072;-59
2022/09/21 04:16:10;;;;;;;60.97;2.33;;;6.30;99.90;;;;;;5071717;28;20107;-58
2022/09/21 04:18:37;;;;;;;22.92;1.00;;;6.20;99.90;;;;;;5077633;28;20120;-59
2022/09/21 04:21:04;;;;;;;2.95;0.73;;;6.20;99.90;;;;;;5071543;28;20041;-59
2022/09/21 04:23:31;;;;;;;3.50;0.40;;;6.10;99.90;;;;;;5070791;28;20094;-57
2022/09/21 04:25:56;;;;;;;39.13;0.93;;;6.20;99.90;;;;;;5071587;28;20036;-57
2022/09/21 04:28:22;;;;;;;4.97;0.60;;;6.10;99.90;;;;;;5073656;28;20044;-58
2022/09/21 04:30:52;;;;;;;2.17;0.30;;;6.10;99.90;;;;;;5091345;28;20174;-56
2022/09/21 04:33:18;;;;;;;0.20;0.20;;;6.10;99.90;;;;;;5090450;28;20055;-57
2022/09/21 04:35:44;;;;;;;0.30;0.20;;;6.10;99.90;;;;;;5088654;28;20044;-59
2022/09/21 04:38:09;;;;;;;56.73;1.53;;;6.10;99.90;;;;;;5071486;28;20035;-58
2022/09/21 04:40:35;;;;;;;8.98;0.40;;;6.10;99.90;;;;;;5072166;28;20036;-57
2022/09/21 04:43:01;;;;;;;0.63;0.30;;;6.00;99.90;;;;;;5070248;28;20055;-59
2022/09/21 04:45:26;;;;;;;0.20;0.20;;;5.90;99.90;;;;;;5070489;28;20149;-59
2022/09/21 04:47:52;;;;;;;30.50;0.70;;;5.90;99.90;;;;;;5069679;28;20036;-58
2022/09/21 04:50:18;;;;;;;9.70;0.60;;;5.90;99.90;;;;;;5081119;28;20047;-57
2022/09/21 04:52:44;;;;;;;3.60;0.43;;;5.90;99.90;;;;;;5090879;28;20312;-55
2022/09/21 04:55:09;;;;;;;2.33;0.40;;;5.90;99.90;;;;;;5090794;28;20055;-57
2022/09/21 04:57:35;;;;;;;0.80;0.50;;;5.80;99.90;;;;;;5091248;28;20485;-56
2022/09/21 05:00:03;;;;;;;40.17;1.60;;;5.80;99.90;;;;;;5086350;28;20291;-58
2022/09/21 05:02:28;;;;;;;14.63;0.80;;;5.80;99.90;;;;;;5070712;28;20402;-59
2022/09/21 05:04:54;;;;;;;3.00;0.40;;;5.70;99.90;;;;;;5081636;28;20043;-57
2022/09/21 05:07:20;;;;;;;3.20;0.30;;;5.60;99.90;;;;;;5090952;28;20044;-58
2022/09/21 05:10:03;;;;;;;1.50;0.40;;;5.60;99.90;;;;;;5089099;28;20532;-58
2022/09/21 05:12:31;;;;;;;1.23;0.30;;;5.60;99.90;;;;;;5090952;28;20043;-58
2022/09/21 05:14:56;;;;;;;3.53;0.70;;;5.60;99.90;;;;;;5090553;28;20073;-58
2022/09/21 05:17:22;;;;;;;14.13;0.97;;;5.60;99.90;;;;;;5090957;28;20048;-58
2022/09/21 05:19:48;;;;;;;25.60;1.20;;;5.60;99.90;;;;;;5090881;28;20058;-59
2022/09/21 05:22:14;;;;;;;40.28;1.58;;;5.50;99.90;;;;;;5075739;28;20440;-58
2022/09/21 05:24:39;;;;;;;2.00;0.60;;;5.50;99.90;;;;;;5070461;28;20097;-57
2022/09/21 05:27:05;;;;;;;1.40;0.60;;;5.40;99.90;;;;;;5071362;28;20275;-59
2022/09/21 05:29:31;;;;;;;7.82;1.20;;;5.40;99.90;;;;;;5070911;28;20040;-57
2022/09/21 05:32:05;;;;;;;53.92;2.70;;;5.50;99.90;;;;;;5080970;28;20044;-57
2022/09/21 05:35:07;;;;;;;55.70;2.33;;;5.50;99.90;;;;;;5090515;28;20039;-56
2022/09/21 05:37:57;;;;;;;13.68;0.73;;;5.50;99.90;;;;;;5092128;28;20047;-58
2022/09/21 05:40:22;;;;;;;4.75;1.38;;;5.40;99.90;;;;;;5101644;28;20086;-59
2022/09/21 05:42:48;;;;;;;2.63;0.60;;;5.40;99.90;;;;;;5080484;28;20040;-55
2022/09/21 05:45:16;;;;;;;7.40;0.88;;;5.40;99.90;;;;;;5091736;28;20397;-57
2022/09/21 05:47:56;;;;;;;1.67;0.70;;;5.40;99.90;;;;;;5089659;28;20071;-59
2022/09/21 05:50:34;;;;;;;13.77;1.60;;;5.50;99.90;;;;;;5090056;28;20036;-57
2022/09/21 05:53:08;;;;;;;7.88;1.23;;;5.50;99.90;;;;;;5098815;28;20040;-59
2022/09/21 05:55:56;;;;;;;1.63;0.90;;;5.60;99.90;;;;;;5095658;28;20043;-57
2022/09/21 05:58:35;;;;;;;48.03;1.65;;;5.70;99.90;;;;;;5082003;28;20043;-56
2022/09/21 06:01:21;;;;;;;40.05;1.08;;;5.80;99.90;;;;;;5076291;28;20497;-55
2022/09/21 06:03:48;;;;;;;54.55;2.05;;;5.80;99.90;;;;;;5051678;28;20096;-55
2022/09/21 06:06:19;;;;;;;18.75;1.55;;;5.90;99.90;;;;;;5076601;28;20378;-58
2022/09/21 06:08:44;;;;;;;39.92;2.13;;;5.90;99.90;;;;;;5081180;28;20039;-57
2022/09/21 06:11:10;;;;;;;64.47;3.03;;;6.00;99.90;;;;;;5084131;28;20117;-57
2022/09/21 06:13:36;;;;;;;72.97;3.28;;;6.10;99.90;;;;;;5071533;28;20047;-57
2022/09/21 06:16:02;;;;;;;41.28;2.30;;;6.30;99.90;;;;;;5074442;28;20036;-58
2022/09/21 06:18:28;;;;;;;40.08;2.08;;;6.40;99.90;;;;;;5083896;28;20489;-56
2022/09/21 06:20:53;;;;;;;52.78;2.83;;;6.60;99.90;;;;;;5081888;28;20036;-56
2022/09/21 06:23:22;;;;;;;1.77;1.20;;;6.80;99.90;;;;;;5072754;28;20120;-56
2022/09/21 06:25:51;;;;;;;1.10;1.00;;;7.10;99.90;;;;;;5081918;28;20038;-59
2022/09/21 06:28:17;;;;;;;32.83;2.33;;;7.40;99.90;;;;;;5093323;28;20043;-59
2022/09/21 06:30:43;;;;;;;21.90;1.80;;;7.60;99.90;;;;;;5090156;28;20035;-57
2022/09/21 06:33:09;;;;;;;36.92;1.98;;;7.70;99.90;;;;;;5092819;28;20040;-59
2022/09/21 06:35:35;;;;;;;27.25;1.48;;;7.70;99.90;;;;;;5095254;28;20032;-57
2022/09/21 06:38:04;;;;;;;36.15;2.58;;;7.80;99.90;;;;;;5074822;28;20085;-55
2022/09/21 06:40:30;;;;;;;61.53;4.10;;;7.90;99.90;;;;;;5105634;28;20036;-57
2022/09/21 06:42:57;;;;;;;;;;;7.90;99.90;;;;;;5086233;28;20037;-55
2022/09/21 06:45:22;;;;;;;4.28;1.27;;;7.90;99.90;;;;;;5087558;28;19923;-59
2022/09/21 06:47:48;;;;;;;11.87;1.60;;;7.90;99.90;;;;;;5080590;28;20044;-58
2022/09/21 06:50:14;;;;;;;1.80;0.90;;;8.00;99.90;;;;;;5076849;28;20126;-57
2022/09/21 06:52:40;;;;;;;64.95;4.95;;;8.10;99.90;;;;;;5083448;28;20040;-57
2022/09/21 06:55:07;;;;;;;5.70;1.48;;;8.20;99.90;;;;;;5095934;28;20048;-57
2022/09/21 06:57:32;;;;;;;4.15;1.17;;;8.30;99.90;;;;;;5091895;28;20616;-57
2022/09/21 06:59:58;;;;;;;1.47;1.30;;;8.40;99.90;;;;;;5080986;28;20040;-56
2022/09/21 07:02:23;;;;;;;11.47;2.20;;;8.60;99.90;;;;;;5087443;28;20067;-58
2022/09/21 07:04:49;;;;;;;3.30;1.60;;;8.70;99.90;;;;;;5086978;28;20295;-59
2022/09/21 07:07:14;;;;;;;20.17;1.97;;;8.90;99.90;;;;;;5078793;28;20684;-54
2022/09/21 07:09:40;;;;;;;4.53;1.57;;;9.00;99.90;;;;;;5081320;28;20051;-58
2022/09/21 07:12:06;;;;;;;2.87;1.30;;;9.20;99.90;;;;;;5078314;28;20097;-58
2022/09/21 07:14:32;;;;;;;;;;;9.40;99.90;;;;;;5082492;28;20082;-58
2022/09/21 07:16:58;;;;;;;3.25;1.77;;;9.50;99.90;;;;;;5092176;28;20376;-59
2022/09/21 07:19:24;;;;;;;3.03;1.40;;;9.60;99.90;;;;;;5095685;28;20032;-59
2022/09/21 07:21:53;;;;;;;2.33;1.30;;;9.60;99.90;;;;;;5096562;28;20040;-59
2022/09/21 07:24:18;;;;;;;9.55;1.52;;;9.80;99.90;;;;;;5081353;28;20044;-60
2022/09/21 07:26:44;;;;;;;4.37;2.50;;;9.90;99.90;;;;;;5099142;28;20037;-58
2022/09/21 07:29:09;;;;;;;3.90;1.87;;;10.00;99.90;;;;;;5086533;28;20112;-59
2022/09/21 07:31:35;;;;;;;5.00;2.73;;;10.20;99.90;;;;;;5088729;28;20032;-59
2022/09/21 07:34:01;;;;;;;5.93;3.77;;;10.30;99.90;;;;;;5083608;28;20505;-61
2022/09/21 07:36:26;;;;;;;4.53;3.97;;;10.50;99.90;;;;;;5083360;28;20158;-62
2022/09/21 07:38:52;;;;;;;5.00;2.70;;;10.60;99.90;;;;;;5088448;28;20043;-59
2022/09/21 07:41:19;;;;;;;11.50;3.47;;;10.70;99.90;;;;;;5083814;28;20043;-62
2022/09/21 07:43:44;;;;;;;2.40;2.20;;;10.80;99.90;;;;;;5082503;28;20050;-62
2022/09/21 07:46:12;;;;;;;3.65;2.55;;;11.00;99.90;;;;;;5089532;28;20040;-62
2022/09/21 07:48:38;;;;;;;3.85;2.90;;;11.10;99.90;;;;;;5097839;28;20657;-59
2022/09/21 07:51:06;;;;;;;5.38;3.13;;;11.20;99.90;;;;;;5093221;28;20111;-60
2022/09/21 07:53:36;;;;;;;4.95;3.47;;;11.20;99.90;;;;;;5104005;28;20085;-59
2022/09/21 07:56:11;;;;;;;5.78;3.28;;;11.20;99.90;;;;;;5098399;28;20036;-60
2022/09/21 08:01:22;;;;;;;5.70;2.35;;;11.50;99.90;;;;;;5077605;28;20036;-59
2022/09/21 08:03:49;;;;;;;5.28;3.33;;;11.60;99.90;;;;;;5086410;28;20065;-59
2022/09/21 08:06:14;;;;;;;17.13;5.00;;;11.80;99.90;;;;;;5084478;28;20139;-60
2022/09/21 08:08:40;;;;;;;7.83;4.90;;;11.90;99.90;;;;;;5091629;28;20028;-61
2022/09/21 08:11:07;;;;;;;9.05;3.83;;;12.10;99.90;;;;;;5101463;28;20092;-59
2022/09/21 08:13:33;;;;;;;10.98;4.18;;;12.20;99.90;;;;;;5078675;28;20039;-62
2022/09/21 08:16:02;;;;;;;7.22;3.88;;;12.30;99.90;;;;;;5076751;28;20044;-61
2022/09/21 08:18:28;;;;;;;7.57;3.45;;;12.40;99.90;;;;;;5081345;28;20044;-62
2022/09/21 08:20:56;;;;;;;6.90;3.70;;;12.50;99.90;;;;;;5070825;28;20036;-59
2022/09/21 08:23:22;;;;;;;9.60;2.70;;;12.60;99.90;;;;;;5068549;28;20293;-57
2022/09/21 08:25:47;;;;;;;13.02;3.38;;;12.70;99.90;;;;;;5068930;28;20358;-62
2022/09/21 08:28:13;;;;;;;7.38;3.08;;;12.90;99.90;;;;;;5066279;28;20048;-63
2022/09/21 08:30:39;;;;;;;5.22;3.15;;;13.00;99.90;;;;;;5076181;28;20105;-63
2022/09/21 08:33:05;;;;;;;8.02;3.33;;;13.10;99.90;;;;;;5084623;28;20055;-59
2022/09/21 08:35:31;;;;;;;10.75;3.22;;;13.20;99.90;;;;;;5095539;28;20046;-61
2022/09/21 08:37:57;;;;;;;9.00;3.10;;;13.40;99.90;;;;;;5093778;28;20471;-59
2022/09/21 08:40:22;;;;;;;14.27;4.10;;;13.50;99.90;;;;;;5095244;28;20028;-63
2022/09/21 08:43:08;;;;;;;6.15;2.25;;;13.50;99.90;;;;;;5092275;28;20040;-62
2022/09/21 08:45:40;;;;;;;8.02;2.67;;;13.60;99.90;;;;;;5092582;28;20081;-63
2022/09/21 08:48:22;;;;;;;4.47;1.77;;;13.70;99.90;;;;;;5089032;28;20037;-61
2022/09/21 08:50:58;;;;;;;10.38;3.00;;;13.80;99.90;;;;;;5092225;28;20035;-61
2022/09/21 08:53:35;;;;;;;6.35;1.73;;;13.90;99.90;;;;;;5092508;28;20050;-61
2022/09/21 08:56:01;;;;;;;7.40;2.70;;;14.10;99.90;;;;;;5091447;28;20504;-62
2022/09/21 08:58:29;;;;;;;7.50;1.60;;;14.20;99.90;;;;;;5092985;28;20448;-60
2022/09/21 09:01:20;;;;;;;5.30;1.52;;;14.30;99.90;;;;;;5091207;28;20051;-63
2022/09/21 09:04:00;;;;;;;13.90;2.47;;;14.40;99.90;;;;;;5095200;28;20454;-63
2022/09/21 09:06:42;;;;;;;5.20;1.85;;;14.50;99.90;;;;;;5094145;28;20215;-62
2022/09/21 09:09:22;;;;;;;8.45;1.35;;;14.60;99.90;;;;;;5094203;28;20040;-63
2022/09/21 09:12:07;;;;;;;7.25;1.85;;;14.70;99.90;;;;;;5093461;28;20046;-61
2022/09/21 09:15:01;;;;;;;8.32;1.88;;;14.70;99.90;;;;;;5094483;28;20412;-62
2022/09/21 09:17:41;;;;;;;5.53;1.48;;;14.80;99.90;;;;;;5091227;28;20047;-61
2022/09/21 09:20:17;;;;;;;6.15;1.33;;;14.90;99.90;;;;;;5092958;28;20071;-62
2022/09/21 09:22:48;;;;;;;7.82;0.93;;;14.90;99.90;;;;;;5092317;28;20028;-60
2022/09/21 09:25:23;;;;;;;6.03;1.23;;;15.00;99.90;;;;;;5093357;28;20036;-60
2022/09/21 09:27:56;;;;;;;8.70;1.08;;;15.10;99.90;;;;;;5095644;28;20066;-60
2022/09/21 09:30:28;;;;;;;6.75;0.88;;;15.20;99.90;;;;;;5093641;28;20450;-63
2022/09/21 09:33:21;;;;;;;8.77;1.15;;;15.20;99.90;;;;;;5096290;28;20039;-62
2022/09/21 09:35:51;;;;;;;3.03;0.90;;;15.40;99.90;;;;;;5097847;28;20123;-61
2022/09/21 09:38:23;;;;;;;9.90;1.45;;;15.50;99.90;;;;;;5096887;28;20039;-63
2022/09/21 09:41:01;;;;;;;5.03;1.52;;;15.60;99.90;;;;;;5098508;28;20035;-62
2022/09/21 09:43:46;;;;;;;10.75;1.10;;;15.80;99.90;;;;;;5096582;28;20342;-61
2022/09/21 09:46:11;;;;;;;4.97;0.55;;;15.80;99.90;;;;;;5098213;28;20464;-63
2022/09/21 09:48:50;;;;;;;7.47;1.08;;;15.80;99.90;;;;;;5100115;28;20078;-62
2022/09/21 09:51:17;;;;;;;7.05;0.40;;;15.90;99.90;;;;;;5095929;28;20036;-63
2022/09/21 09:53:42;;;;;;;5.15;0.80;;;15.90;99.90;;;;;;5091558;28;20090;-62
2022/09/21 09:56:10;;;;;;;7.03;0.50;;;16.00;99.90;;;;;;5094750;28;20036;-63
2022/09/21 09:58:51;;;;;;;6.97;1.38;;;16.10;99.60;;;;;;5097811;28;20035;-63
2022/09/21 10:01:40;;;;;;;6.38;1.00;;;16.20;99.60;;;;;;5095062;28;20550;-61
2022/09/21 10:04:14;;;;;;;3.40;0.52;;;16.30;99.20;;;;;;5096503;28;20048;-63
2022/09/21 10:06:40;;;;;;;5.00;0.70;;;16.40;99.80;;;;;;5097831;28;20040;-63
2022/09/21 10:09:28;;;;;;;7.05;0.47;;;16.50;99.90;;;;;;5094727;28;20102;-64
2022/09/21 10:12:14;;;;;;;4.05;0.50;;;16.60;98.90;;;;;;5092757;28;20111;-63
2022/09/21 10:14:51;;;;;;;5.43;0.40;;;16.70;99.20;;;;;;5096482;28;20100;-64
2022/09/21 10:17:18;;;;;;;5.70;0.50;;;16.90;98.90;;;;;;5094511;28;20036;-63
2022/09/21 10:19:44;;;;;;;;;;;16.90;98.20;;;;;;5098983;28;20497;-63
2022/09/21 10:22:17;;;;;;;4.25;0.68;;;16.90;97.40;;;;;;5094394;28;19922;-62
2022/09/21 10:24:49;;;;;;;4.05;0.55;;;16.90;97.70;;;;;;5094903;28;20055;-64
2022/09/21 10:27:20;;;;;;;7.45;0.40;;;16.90;97.70;;;;;;5087890;28;20047;-64
2022/09/21 10:29:48;;;;;;;5.40;0.47;;;17.00;98.00;;;;;;5087129;28;20090;-62
2022/09/21 10:32:22;;;;;;;5.47;0.70;;;17.00;96.50;;;;;;5089404;28;20046;-63
2022/09/21 10:35:06;;;;;;;9.15;0.30;;;16.90;96.40;;;;;;5082424;28;20048;-63
2022/09/21 10:37:39;;;;;;;7.72;0.30;;;16.80;95.70;;;;;;5094838;28;20093;-63
2022/09/21 10:40:22;;;;;;;6.75;0.95;;;16.80;95.80;;;;;;5096133;28;20043;-63
2022/09/21 10:42:49;;;;;;;2.58;0.40;;;16.80;95.20;;;;;;5097908;27;20058;-63
2022/09/21 10:45:25;;;;;;;6.55;0.50;;;16.80;96.10;;;;;;5098067;28;20032;-62
2022/09/21 10:47:56;;;;;;;4.03;0.60;;;16.90;95.70;;;;;;5087615;28;20097;-64
2022/09/21 10:50:48;;;;;;;6.38;0.40;;;17.10;96.50;;;;;;5095377;28;20031;-63
2022/09/21 10:53:27;;;;;;;3.28;0.20;;;17.30;95.50;;;;;;5093217;28;20052;-63
2022/09/21 10:55:58;;;;;;;6.70;0.50;;;17.50;96.50;;;;;;5095226;28;20036;-63
2022/09/21 10:58:24;;;;;;;3.25;0.35;;;17.60;96.40;;;;;;5090359;28;20036;-63
2022/09/21 11:00:51;;;;;;;16.08;1.27;;;17.70;96.10;;;;;;5093280;28;20035;-63
2022/09/21 11:03:41;;;;;;;6.88;0.30;;;17.90;94.90;;;;;;5091370;28;20472;-63
2022/09/21 11:06:25;;;;;;;5.25;0.25;;;18.00;95.20;;;;;;5091557;28;20050;-63
2022/09/21 11:09:01;;;;;;;3.35;0.32;;;18.10;95.40;;;;;;5093715;28;20080;-63
2022/09/21 11:11:46;;;;;;;9.33;0.50;;;18.10;94.60;;;;;;5094084;28;20036;-64
2022/09/21 11:14:20;;;;;;;3.70;0.10;;;18.20;94.70;;;;;;5096928;28;20068;-63
2022/09/21 11:17:32;;;;;;;2.67;0.30;;;18.30;93.80;;;;;;5094473;28;20519;-64
2022/09/21 11:20:19;;;;;;;3.97;0.60;;;18.30;93.20;;;;;;5062088;28;20055;-62
2022/09/21 11:23:03;;;;;;;6.45;0.20;;;18.30;93.00;;;;;;5092798;28;20074;-64
2022/09/21 11:25:35;;;;;;;5.30;0.50;;;18.20;92.80;;;;;;5087441;28;20260;-64
2022/09/21 11:28:33;;;;;;;2.95;0.40;;;18.20;93.90;;;;;;5088386;28;20093;-64
2022/09/21 11:31:17;;;;;;;3.75;0.60;;;18.30;94.40;;;;;;5087656;28;20518;-63
2022/09/21 11:33:49;;;;;;;3.00;0.40;;;18.30;93.40;;;;;;5094641;28;20044;-63
2022/09/21 11:36:30;;;;;;;6.18;0.63;;;18.30;94.60;;;;;;5092028;28;20051;-63
2022/09/21 11:39:14;;;;;;;4.43;0.55;;;18.40;94.70;;;;;;5092317;28;20066;-64
2022/09/21 11:42:07;;;;;;;3.50;0.40;;;18.60;93.90;;;;;;5091935;28;20043;-63
2022/09/21 11:44:32;;;;;;;5.50;0.40;;;18.70;93.50;;;;;;5094095;28;20078;-62
2022/09/21 11:46:58;;;;;;;4.10;0.20;;;18.80;93.60;;;;;;5094659;28;20067;-62
2022/09/21 11:49:48;;;;;;;4.25;0.28;;;18.90;93.80;;;;;;5094515;28;20397;-64
2022/09/21 11:52:20;;;;;;;4.68;0.32;;;19.00;91.90;;;;;;5093935;28;20127;-64
2022/09/21 11:55:07;;;;;;;3.95;0.25;;;19.10;92.40;;;;;;5092041;28;20040;-63
2022/09/21 11:57:50;;;;;;;5.10;0.45;;;19.20;92.20;;;;;;5097023;28;20072;-64
2022/09/21 12:00:16;;;;;;;4.70;0.43;;;19.20;91.70;;;;;;5092952;28;20031;-63
2022/09/21 12:02:42;;;;;;;2.83;0.60;;;19.20;91.30;;;;;;5096818;28;20495;-63
2022/09/21 12:05:34;;;;;;;3.80;0.32;;;19.30;90.80;;;;;;5095945;28;20044;-64
2022/09/21 12:08:27;;;;;;;10.27;0.63;;;19.30;91.40;;;;;;5091399;28;20619;-64
2022/09/21 12:11:11;;;;;;;4.80;0.50;;;19.20;88.90;;;;;;5091135;28;20058;-64
2022/09/21 12:14:06;;;;;;;2.30;0.40;;;19.30;90.30;;;;;;5094596;28;20040;-62
2022/09/21 12:16:46;;;;;;;4.22;0.30;;;19.30;89.00;;;;;;5090189;28;20032;-64
2022/09/21 12:19:32;;;;;;;7.07;0.32;;;19.30;90.40;;;;;;5091031;28;20671;-63
2022/09/21 12:22:08;;;;;;;11.35;1.38;;;19.30;90.60;;;;;;5095451;28;20576;-63
2022/09/21 12:24:49;;;;;;;1.90;0.22;;;19.30;90.20;;;;;;5090355;28;20039;-62
2022/09/21 12:27:37;;;;;;;5.35;0.68;;;19.40;88.70;;;;;;5076953;28;20422;-64
2022/09/21 12:30:10;;;;;;;2.78;0.30;;;19.40;86.60;;;;;;5079829;28;20051;-63
2022/09/21 12:32:57;;;;;;;2.92;0.20;;;19.40;88.70;;;;;;5082741;28;20086;-63
2022/09/21 12:35:46;;;;;;;2.30;0.30;;;19.50;87.50;;;;;;5082863;28;20036;-63
2022/09/21 12:38:35;;;;;;;4.07;0.40;;;19.50;86.30;;;;;;5084169;28;20048;-64
2022/09/21 12:41:17;;;;;;;3.83;0.40;;;19.40;85.80;;;;;;5079458;28;20028;-63
2022/09/21 12:44:05;;;;;;;2.75;0.63;;;19.50;84.70;;;;;;5080561;28;20066;-63
2022/09/21 12:46:33;;;;;;;;;;;19.40;81.90;;;;;;5080833;28;20243;-63
2022/09/21 12:49:07;;;;;;;4.82;0.40;;;19.50;85.60;;;;;;5083426;28;19919;-63
2022/09/21 12:51:37;;;;;;;4.07;0.47;;;19.50;85.30;;;;;;5083506;28;20043;-63
2022/09/21 12:54:14;;;;;;;3.72;0.73;;;19.40;83.10;;;;;;5080850;28;20588;-63
2022/09/21 12:56:52;;;;;;;2.13;0.20;;;19.30;83.30;;;;;;5075236;28;20499;-63
2022/09/21 12:59:42;;;;;;;4.55;0.20;;;19.30;82.60;;;;;;5081226;28;20075;-64
2022/09/21 13:02:39;;;;;;;2.60;0.30;;;19.20;79.60;;;;;;5082193;28;20040;-64
2022/09/21 13:05:22;;;;;;;3.33;0.30;;;19.30;79.20;;;;;;5080934;28;20119;-64
2022/09/21 13:08:06;;;;;;;2.88;0.77;;;19.30;80.40;;;;;;5080464;28;20598;-63
2022/09/21 13:10:54;;;;;;;3.30;0.63;;;19.30;78.20;;;;;;5084808;28;20084;-63
2022/09/21 13:13:23;;;;;;;2.50;0.30;;;19.30;78.20;;;;;;5079461;28;20036;-64
2022/09/21 13:15:49;;;;;;;5.47;0.80;;;19.30;80.90;;;;;;5080342;28;20127;-63
2022/09/21 13:18:41;;;;;;;1.95;0.20;;;19.30;81.60;;;;;;5081022;28;20029;-63
2022/09/21 13:21:18;;;;;;;2.80;0.50;;;19.30;78.30;;;;;;5079219;28;20477;-64
2022/09/21 13:24:11;;;;;;;2.15;0.20;;;19.20;76.10;;;;;;5080373;28;20150;-64